sensor_id;sensor_type;location;lat;lon;timestamp;P1;durP1;ratioP1;P2;durP2;ratioP2
1701;SDS011;848;48.354;10.064;2023-03-26T00:00:23;4.63;;;0.90;;
1701;SDS011;848;48.354;10.064;2023-03-26T00:02:50;4.50;;;0.70;;
1701;SDS011;848;48.354;10.064;2023-03-26T00:05:19;6.20;;;0.68;;
1701;SDS011;848;48.354;10.064;2023-03-26T00:07:45;5.53;;;0.60;;
1701;SDS011;848;48.354;10.064;2023-03-26T00:10:12;4.40;;;0.70;;
1701;SDS011;848;48.354;10.064;2023-03-26T00:12:39;4.75;;;0.55;;
1701;SDS011;848;48.354;10.064;2023-03-26T00:15:07;5.57;;;0.82;;
1701;SDS011;848;48.354;10.064;2023-03-26T00:17:34;4.60;;;0.80;;
1701;SDS011;848;48.354;10.064;2023-03-26T00:20:02;4.35;;;0.95;;
1701;SDS011;848;48.354;10.064;2023-03-26T00:22:30;5.25;;;1.00;;
1701;SDS011;848;48.354;10.064;2023-03-26T00:24:57;4.00;;;0.60;;
1701;SDS011;848;48.354;10.064;2023-03-26T00:27:25;5.45;;;0.60;;
1701;SDS011;848;48.354;10.064;2023-03-26T00:29:53;4.22;;;0.70;;
1701;SDS011;848;48.354;10.064;2023-03-26T00:32:21;5.90;;;0.85;;
1701;SDS011;848;48.354;10.064;2023-03-26T00:34:51;5.45;;;0.95;;
1701;SDS011;848;48.354;10.064;2023-03-26T00:37:19;3.95;;;0.57;;
1701;SDS011;848;48.354;10.064;2023-03-26T00:39:51;7.72;;;1.10;;
1701;SDS011;848;48.354;10.064;2023-03-26T00:42:18;7.80;;;0.90;;
1701;SDS011;848;48.354;10.064;2023-03-26T00:44:45;7.13;;;0.98;;
1701;SDS011;848;48.354;10.064;2023-03-26T00:47:15;4.43;;;0.73;;
1701;SDS011;848;48.354;10.064;2023-03-26T00:49:42;3.90;;;0.82;;
1701;SDS011;848;48.354;10.064;2023-03-26T00:52:11;5.32;;;0.85;;
1701;SDS011;848;48.354;10.064;2023-03-26T00:54:38;4.25;;;0.80;;
1701;SDS011;848;48.354;10.064;2023-03-26T00:57:10;6.78;;;1.00;;
1701;SDS011;848;48.354;10.064;2023-03-26T00:59:37;7.50;;;1.13;;
1701;SDS011;848;48.354;10.064;2023-03-26T01:02:05;4.47;;;1.30;;
1701;SDS011;848;48.354;10.064;2023-03-26T01:04:35;5.05;;;0.82;;
1701;SDS011;848;48.354;10.064;2023-03-26T01:07:03;5.25;;;0.80;;
1701;SDS011;848;48.354;10.064;2023-03-26T01:09:45;6.68;;;1.33;;
1701;SDS011;848;48.354;10.064;2023-03-26T01:12:18;9.10;;;1.02;;
1701;SDS011;848;48.354;10.064;2023-03-26T01:14:48;4.00;;;0.63;;
1701;SDS011;848;48.354;10.064;2023-03-26T01:17:17;6.40;;;1.10;;
1701;SDS011;848;48.354;10.064;2023-03-26T01:19:46;6.35;;;1.00;;
1701;SDS011;848;48.354;10.064;2023-03-26T01:22:17;5.25;;;1.17;;
1701;SDS011;848;48.354;10.064;2023-03-26T01:24:48;7.97;;;1.30;;
1701;SDS011;848;48.354;10.064;2023-03-26T01:27:22;6.55;;;1.42;;
1701;SDS011;848;48.354;10.064;2023-03-26T01:29:58;8.32;;;1.42;;
1701;SDS011;848;48.354;10.064;2023-03-26T01:32:37;5.07;;;0.98;;
1701;SDS011;848;48.354;10.064;2023-03-26T01:35:20;7.10;;;1.00;;
1701;SDS011;848;48.354;10.064;2023-03-26T01:37:55;6.85;;;1.42;;
1701;SDS011;848;48.354;10.064;2023-03-26T01:40:36;8.63;;;0.90;;
1701;SDS011;848;48.354;10.064;2023-03-26T01:43:08;6.15;;;1.25;;
1701;SDS011;848;48.354;10.064;2023-03-26T01:45:38;6.00;;;1.17;;
1701;SDS011;848;48.354;10.064;2023-03-26T01:48:07;9.65;;;1.17;;
1701;SDS011;848;48.354;10.064;2023-03-26T01:50:34;7.30;;;1.17;;
1701;SDS011;848;48.354;10.064;2023-03-26T01:53:01;5.90;;;1.30;;
1701;SDS011;848;48.354;10.064;2023-03-26T01:55:31;5.90;;;1.40;;
1701;SDS011;848;48.354;10.064;2023-03-26T01:58:11;8.40;;;1.63;;
1701;SDS011;848;48.354;10.064;2023-03-26T02:00:50;5.85;;;1.10;;
1701;SDS011;848;48.354;10.064;2023-03-26T02:03:26;7.50;;;1.00;;
1701;SDS011;848;48.354;10.064;2023-03-26T02:05:57;5.40;;;1.30;;
1701;SDS011;848;48.354;10.064;2023-03-26T02:08:32;5.55;;;1.33;;
1701;SDS011;848;48.354;10.064;2023-03-26T02:11:02;8.23;;;1.50;;
1701;SDS011;848;48.354;10.064;2023-03-26T02:13:36;7.60;;;1.30;;
1701;SDS011;848;48.354;10.064;2023-03-26T02:16:04;9.18;;;1.10;;
1701;SDS011;848;48.354;10.064;2023-03-26T02:18:33;3.95;;;1.00;;
1701;SDS011;848;48.354;10.064;2023-03-26T02:21:06;10.45;;;1.23;;
1701;SDS011;848;48.354;10.064;2023-03-26T02:23:36;6.80;;;1.33;;
1701;SDS011;848;48.354;10.064;2023-03-26T02:26:04;8.30;;;1.30;;
1701;SDS011;848;48.354;10.064;2023-03-26T02:28:32;11.88;;;1.33;;
1701;SDS011;848;48.354;10.064;2023-03-26T02:31:01;5.82;;;1.13;;
1701;SDS011;848;48.354;10.064;2023-03-26T02:33:28;8.10;;;1.25;;
1701;SDS011;848;48.354;10.064;2023-03-26T02:35:56;9.93;;;1.52;;
1701;SDS011;848;48.354;10.064;2023-03-26T02:38:26;6.68;;;1.20;;
1701;SDS011;848;48.354;10.064;2023-03-26T02:40:53;5.80;;;0.98;;
1701;SDS011;848;48.354;10.064;2023-03-26T02:43:21;7.25;;;1.65;;
1701;SDS011;848;48.354;10.064;2023-03-26T02:45:48;8.88;;;1.55;;
1701;SDS011;848;48.354;10.064;2023-03-26T02:48:16;7.47;;;1.00;;
1701;SDS011;848;48.354;10.064;2023-03-26T02:50:44;6.07;;;1.40;;
1701;SDS011;848;48.354;10.064;2023-03-26T02:53:14;10.90;;;3.47;;
1701;SDS011;848;48.354;10.064;2023-03-26T02:55:41;6.90;;;1.65;;
1701;SDS011;848;48.354;10.064;2023-03-26T02:58:08;6.47;;;1.35;;
1701;SDS011;848;48.354;10.064;2023-03-26T03:00:35;4.90;;;1.05;;
1701;SDS011;848;48.354;10.064;2023-03-26T03:03:02;5.85;;;1.55;;
1701;SDS011;848;48.354;10.064;2023-03-26T03:05:32;6.68;;;1.83;;
1701;SDS011;848;48.354;10.064;2023-03-26T03:08:02;7.82;;;1.63;;
1701;SDS011;848;48.354;10.064;2023-03-26T03:10:30;5.35;;;1.25;;
1701;SDS011;848;48.354;10.064;2023-03-26T03:12:57;6.45;;;1.50;;
1701;SDS011;848;48.354;10.064;2023-03-26T03:15:25;6.75;;;1.45;;
1701;SDS011;848;48.354;10.064;2023-03-26T03:17:52;5.65;;;1.27;;
1701;SDS011;848;48.354;10.064;2023-03-26T03:20:19;4.80;;;1.15;;
1701;SDS011;848;48.354;10.064;2023-03-26T03:22:47;5.68;;;1.33;;
1701;SDS011;848;48.354;10.064;2023-03-26T03:25:14;6.03;;;1.27;;
1701;SDS011;848;48.354;10.064;2023-03-26T03:27:43;5.43;;;1.25;;
1701;SDS011;848;48.354;10.064;2023-03-26T03:30:11;4.78;;;1.30;;
1701;SDS011;848;48.354;10.064;2023-03-26T03:32:39;4.78;;;1.38;;
1701;SDS011;848;48.354;10.064;2023-03-26T03:35:06;6.60;;;1.17;;
1701;SDS011;848;48.354;10.064;2023-03-26T03:37:33;6.47;;;1.60;;
1701;SDS011;848;48.354;10.064;2023-03-26T03:40:02;6.65;;;1.55;;
1701;SDS011;848;48.354;10.064;2023-03-26T03:42:31;11.10;;;1.27;;
1701;SDS011;848;48.354;10.064;2023-03-26T03:44:58;6.47;;;1.50;;
1701;SDS011;848;48.354;10.064;2023-03-26T03:47:26;10.73;;;1.30;;
1701;SDS011;848;48.354;10.064;2023-03-26T03:49:52;6.93;;;1.38;;
1701;SDS011;848;48.354;10.064;2023-03-26T03:52:20;6.25;;;1.20;;
1701;SDS011;848;48.354;10.064;2023-03-26T03:54:47;6.30;;;1.48;;
1701;SDS011;848;48.354;10.064;2023-03-26T03:57:16;11.00;;;1.70;;
1701;SDS011;848;48.354;10.064;2023-03-26T03:59:46;7.22;;;1.40;;
1701;SDS011;848;48.354;10.064;2023-03-26T04:02:13;4.90;;;1.15;;
1701;SDS011;848;48.354;10.064;2023-03-26T04:04:50;6.07;;;1.75;;
1701;SDS011;848;48.354;10.064;2023-03-26T04:07:17;6.68;;;1.40;;
1701;SDS011;848;48.354;10.064;2023-03-26T04:09:44;8.05;;;1.15;;
1701;SDS011;848;48.354;10.064;2023-03-26T04:12:14;7.72;;;1.40;;
1701;SDS011;848;48.354;10.064;2023-03-26T04:14:42;5.05;;;0.90;;
1701;SDS011;848;48.354;10.064;2023-03-26T04:17:09;8.77;;;1.42;;
1701;SDS011;848;48.354;10.064;2023-03-26T04:19:37;6.72;;;1.20;;
1701;SDS011;848;48.354;10.064;2023-03-26T04:22:04;5.38;;;1.27;;
1701;SDS011;848;48.354;10.064;2023-03-26T04:24:32;8.13;;;1.77;;
1701;SDS011;848;48.354;10.064;2023-03-26T04:27:02;5.55;;;1.35;;
1701;SDS011;848;48.354;10.064;2023-03-26T04:29:32;4.85;;;1.10;;
1701;SDS011;848;48.354;10.064;2023-03-26T04:32:08;6.68;;;1.67;;
1701;SDS011;848;48.354;10.064;2023-03-26T04:34:38;6.63;;;1.58;;
1701;SDS011;848;48.354;10.064;2023-03-26T04:37:11;7.82;;;1.35;;
1701;SDS011;848;48.354;10.064;2023-03-26T04:39:44;9.88;;;1.73;;
1701;SDS011;848;48.354;10.064;2023-03-26T04:42:11;5.80;;;1.20;;
1701;SDS011;848;48.354;10.064;2023-03-26T04:44:38;6.40;;;1.55;;
1701;SDS011;848;48.354;10.064;2023-03-26T04:47:07;7.80;;;1.48;;
1701;SDS011;848;48.354;10.064;2023-03-26T04:49:34;6.65;;;1.20;;
1701;SDS011;848;48.354;10.064;2023-03-26T04:52:01;6.88;;;1.13;;
1701;SDS011;848;48.354;10.064;2023-03-26T04:54:28;6.15;;;1.30;;
1701;SDS011;848;48.354;10.064;2023-03-26T04:56:59;6.00;;;1.48;;
1701;SDS011;848;48.354;10.064;2023-03-26T04:59:29;7.50;;;1.55;;
1701;SDS011;848;48.354;10.064;2023-03-26T05:01:58;5.63;;;1.35;;
1701;SDS011;848;48.354;10.064;2023-03-26T05:04:28;5.53;;;1.45;;
1701;SDS011;848;48.354;10.064;2023-03-26T05:06:55;5.75;;;1.35;;
1701;SDS011;848;48.354;10.064;2023-03-26T05:09:23;5.38;;;1.25;;
1701;SDS011;848;48.354;10.064;2023-03-26T05:11:50;8.40;;;2.05;;
1701;SDS011;848;48.354;10.064;2023-03-26T05:14:17;7.10;;;1.25;;
1701;SDS011;848;48.354;10.064;2023-03-26T05:16:45;6.47;;;1.23;;
1701;SDS011;848;48.354;10.064;2023-03-26T05:19:14;7.85;;;1.60;;
1701;SDS011;848;48.354;10.064;2023-03-26T05:21:43;13.80;;;1.65;;
1701;SDS011;848;48.354;10.064;2023-03-26T05:24:10;7.22;;;1.65;;
1701;SDS011;848;48.354;10.064;2023-03-26T05:26:37;7.45;;;1.40;;
1701;SDS011;848;48.354;10.064;2023-03-26T05:29:03;9.02;;;1.50;;
1701;SDS011;848;48.354;10.064;2023-03-26T05:31:30;6.30;;;1.60;;
1701;SDS011;848;48.354;10.064;2023-03-26T05:33:57;5.43;;;1.63;;
1701;SDS011;848;48.354;10.064;2023-03-26T05:36:25;6.95;;;2.00;;
1701;SDS011;848;48.354;10.064;2023-03-26T05:38:54;6.25;;;1.92;;
1701;SDS011;848;48.354;10.064;2023-03-26T05:41:21;7.15;;;1.33;;
1701;SDS011;848;48.354;10.064;2023-03-26T05:43:48;7.63;;;2.05;;
1701;SDS011;848;48.354;10.064;2023-03-26T05:46:15;6.75;;;1.90;;
1701;SDS011;848;48.354;10.064;2023-03-26T05:48:42;10.63;;;2.47;;
1701;SDS011;848;48.354;10.064;2023-03-26T05:51:09;11.55;;;2.20;;
1701;SDS011;848;48.354;10.064;2023-03-26T05:53:37;7.07;;;1.83;;
1701;SDS011;848;48.354;10.064;2023-03-26T05:56:05;10.07;;;2.08;;
1701;SDS011;848;48.354;10.064;2023-03-26T05:58:33;7.05;;;1.17;;
1701;SDS011;848;48.354;10.064;2023-03-26T06:01:01;4.82;;;1.17;;
1701;SDS011;848;48.354;10.064;2023-03-26T06:03:33;6.10;;;1.45;;
1701;SDS011;848;48.354;10.064;2023-03-26T06:06:01;7.03;;;1.25;;
1701;SDS011;848;48.354;10.064;2023-03-26T06:08:29;7.75;;;1.88;;
1701;SDS011;848;48.354;10.064;2023-03-26T06:10:59;10.52;;;1.50;;
1701;SDS011;848;48.354;10.064;2023-03-26T06:13:29;10.30;;;1.60;;
1701;SDS011;848;48.354;10.064;2023-03-26T06:15:56;4.90;;;1.55;;
1701;SDS011;848;48.354;10.064;2023-03-26T06:18:23;5.82;;;1.40;;
1701;SDS011;848;48.354;10.064;2023-03-26T06:20:50;6.70;;;1.50;;
1701;SDS011;848;48.354;10.064;2023-03-26T06:23:18;7.18;;;1.98;;
1701;SDS011;848;48.354;10.064;2023-03-26T06:25:45;5.03;;;1.20;;
1701;SDS011;848;48.354;10.064;2023-03-26T06:28:12;8.30;;;1.77;;
1701;SDS011;848;48.354;10.064;2023-03-26T06:30:40;11.70;;;3.13;;
1701;SDS011;848;48.354;10.064;2023-03-26T06:33:07;13.93;;;3.95;;
1701;SDS011;848;48.354;10.064;2023-03-26T06:35:35;9.27;;;3.88;;
1701;SDS011;848;48.354;10.064;2023-03-26T06:38:02;10.73;;;3.83;;
1701;SDS011;848;48.354;10.064;2023-03-26T06:40:31;11.85;;;3.97;;
1701;SDS011;848;48.354;10.064;2023-03-26T06:42:58;11.52;;;3.80;;
1701;SDS011;848;48.354;10.064;2023-03-26T06:45:26;11.55;;;4.03;;
1701;SDS011;848;48.354;10.064;2023-03-26T06:47:54;10.30;;;2.60;;
1701;SDS011;848;48.354;10.064;2023-03-26T06:50:21;11.15;;;4.70;;
1701;SDS011;848;48.354;10.064;2023-03-26T06:52:48;12.68;;;3.75;;
1701;SDS011;848;48.354;10.064;2023-03-26T06:55:15;11.90;;;5.57;;
1701;SDS011;848;48.354;10.064;2023-03-26T06:57:42;11.10;;;4.93;;
1701;SDS011;848;48.354;10.064;2023-03-26T07:00:14;8.68;;;3.78;;
1701;SDS011;848;48.354;10.064;2023-03-26T07:02:42;14.02;;;4.47;;
1701;SDS011;848;48.354;10.064;2023-03-26T07:05:10;13.82;;;5.15;;
1701;SDS011;848;48.354;10.064;2023-03-26T07:07:38;11.80;;;3.42;;
1701;SDS011;848;48.354;10.064;2023-03-26T07:10:05;14.85;;;4.40;;
1701;SDS011;848;48.354;10.064;2023-03-26T07:12:33;16.02;;;5.97;;
1701;SDS011;848;48.354;10.064;2023-03-26T07:15:00;10.75;;;5.15;;
1701;SDS011;848;48.354;10.064;2023-03-26T07:17:28;9.80;;;3.33;;
1701;SDS011;848;48.354;10.064;2023-03-26T07:19:55;13.70;;;4.15;;
1701;SDS011;848;48.354;10.064;2023-03-26T07:22:24;14.10;;;3.95;;
1701;SDS011;848;48.354;10.064;2023-03-26T07:24:51;7.35;;;3.67;;
1701;SDS011;848;48.354;10.064;2023-03-26T07:27:22;7.47;;;2.78;;
1701;SDS011;848;48.354;10.064;2023-03-26T07:30:03;6.78;;;2.70;;
1701;SDS011;848;48.354;10.064;2023-03-26T07:32:35;5.20;;;1.85;;
1701;SDS011;848;48.354;10.064;2023-03-26T07:35:09;6.97;;;2.08;;
1701;SDS011;848;48.354;10.064;2023-03-26T07:37:46;5.47;;;1.60;;
1701;SDS011;848;48.354;10.064;2023-03-26T07:40:26;8.45;;;2.20;;
1701;SDS011;848;48.354;10.064;2023-03-26T07:43:07;5.78;;;1.60;;
1701;SDS011;848;48.354;10.064;2023-03-26T07:45:45;8.70;;;1.85;;
1701;SDS011;848;48.354;10.064;2023-03-26T07:48:14;5.53;;;2.10;;
1701;SDS011;848;48.354;10.064;2023-03-26T07:50:44;8.50;;;2.78;;
1701;SDS011;848;48.354;10.064;2023-03-26T07:53:16;8.95;;;4.57;;
1701;SDS011;848;48.354;10.064;2023-03-26T07:55:45;18.88;;;10.75;;
1701;SDS011;848;48.354;10.064;2023-03-26T08:01:07;10.20;;;3.28;;
1701;SDS011;848;48.354;10.064;2023-03-26T08:06:34;13.10;;;4.68;;
1701;SDS011;848;48.354;10.064;2023-03-26T08:09:06;9.95;;;3.42;;
1701;SDS011;848;48.354;10.064;2023-03-26T08:11:39;6.78;;;2.05;;
1701;SDS011;848;48.354;10.064;2023-03-26T08:14:23;7.10;;;2.25;;
1701;SDS011;848;48.354;10.064;2023-03-26T08:17:16;7.63;;;2.00;;
1701;SDS011;848;48.354;10.064;2023-03-26T08:19:52;6.82;;;2.00;;
1701;SDS011;848;48.354;10.064;2023-03-26T08:22:26;10.10;;;2.45;;
1701;SDS011;848;48.354;10.064;2023-03-26T08:25:17;6.72;;;2.08;;
1701;SDS011;848;48.354;10.064;2023-03-26T08:27:54;11.38;;;2.00;;
1701;SDS011;848;48.354;10.064;2023-03-26T08:30:34;8.00;;;2.53;;
1701;SDS011;848;48.354;10.064;2023-03-26T08:33:03;11.25;;;2.33;;
1701;SDS011;848;48.354;10.064;2023-03-26T08:35:38;13.35;;;2.78;;
1701;SDS011;848;48.354;10.064;2023-03-26T08:38:06;9.82;;;3.33;;
1701;SDS011;848;48.354;10.064;2023-03-26T08:43:49;5.80;;;1.90;;
1701;SDS011;848;48.354;10.064;2023-03-26T08:46:48;6.63;;;1.75;;
1701;SDS011;848;48.354;10.064;2023-03-26T08:49:33;5.25;;;2.00;;
1701;SDS011;848;48.354;10.064;2023-03-26T08:52:35;6.30;;;2.20;;
1701;SDS011;848;48.354;10.064;2023-03-26T08:55:29;8.23;;;2.60;;
1701;SDS011;848;48.354;10.064;2023-03-26T09:04:13;9.60;;;2.38;;
1701;SDS011;848;48.354;10.064;2023-03-26T09:10:29;10.57;;;4.75;;
1701;SDS011;848;48.354;10.064;2023-03-26T09:13:23;7.70;;;2.30;;
1701;SDS011;848;48.354;10.064;2023-03-26T09:22:31;9.82;;;2.45;;
1701;SDS011;848;48.354;10.064;2023-03-26T09:31:47;5.75;;;2.20;;
1701;SDS011;848;48.354;10.064;2023-03-26T09:34:38;8.48;;;3.08;;
1701;SDS011;848;48.354;10.064;2023-03-26T09:37:31;8.60;;;3.08;;
1701;SDS011;848;48.354;10.064;2023-03-26T09:40:14;8.55;;;3.95;;
1701;SDS011;848;48.354;10.064;2023-03-26T09:42:43;8.75;;;2.72;;
1701;SDS011;848;48.354;10.064;2023-03-26T09:51:12;6.40;;;1.70;;
1701;SDS011;848;48.354;10.064;2023-03-26T09:53:52;4.50;;;1.20;;
1701;SDS011;848;48.354;10.064;2023-03-26T09:56:30;6.05;;;1.92;;
1701;SDS011;848;48.354;10.064;2023-03-26T09:59:08;5.05;;;1.40;;
1701;SDS011;848;48.354;10.064;2023-03-26T10:01:59;5.38;;;1.58;;
1701;SDS011;848;48.354;10.064;2023-03-26T10:04:50;6.50;;;1.73;;
1701;SDS011;848;48.354;10.064;2023-03-26T10:07:51;8.13;;;2.20;;
1701;SDS011;848;48.354;10.064;2023-03-26T10:10:29;12.35;;;1.67;;
1701;SDS011;848;48.354;10.064;2023-03-26T10:13:04;5.72;;;1.70;;
1701;SDS011;848;48.354;10.064;2023-03-26T10:15:49;7.93;;;2.15;;
1701;SDS011;848;48.354;10.064;2023-03-26T10:18:32;5.85;;;2.22;;
1701;SDS011;848;48.354;10.064;2023-03-26T10:21:07;4.80;;;1.70;;
1701;SDS011;848;48.354;10.064;2023-03-26T10:23:47;4.93;;;1.70;;
1701;SDS011;848;48.354;10.064;2023-03-26T10:26:38;5.60;;;1.92;;
1701;SDS011;848;48.354;10.064;2023-03-26T10:29:17;4.53;;;1.30;;
1701;SDS011;848;48.354;10.064;2023-03-26T10:31:51;5.88;;;1.63;;
1701;SDS011;848;48.354;10.064;2023-03-26T10:34:30;4.70;;;1.20;;
1701;SDS011;848;48.354;10.064;2023-03-26T10:37:15;7.40;;;2.15;;
1701;SDS011;848;48.354;10.064;2023-03-26T10:40:03;6.07;;;1.90;;
1701;SDS011;848;48.354;10.064;2023-03-26T10:45:39;6.82;;;2.50;;
1701;SDS011;848;48.354;10.064;2023-03-26T10:48:26;7.00;;;2.80;;
1701;SDS011;848;48.354;10.064;2023-03-26T10:51:10;5.18;;;1.63;;
1701;SDS011;848;48.354;10.064;2023-03-26T10:53:56;5.78;;;1.67;;
1701;SDS011;848;48.354;10.064;2023-03-26T10:56:27;6.53;;;1.90;;
1701;SDS011;848;48.354;10.064;2023-03-26T10:58:58;7.47;;;1.95;;
1701;SDS011;848;48.354;10.064;2023-03-26T11:01:34;6.95;;;1.63;;
1701;SDS011;848;48.354;10.064;2023-03-26T11:04:08;5.70;;;1.90;;
1701;SDS011;848;48.354;10.064;2023-03-26T11:06:48;7.63;;;3.30;;
1701;SDS011;848;48.354;10.064;2023-03-26T11:09:26;4.45;;;1.30;;
1701;SDS011;848;48.354;10.064;2023-03-26T11:11:59;7.95;;;3.58;;
1701;SDS011;848;48.354;10.064;2023-03-26T11:14:32;5.32;;;1.70;;
1701;SDS011;848;48.354;10.064;2023-03-26T11:17:08;6.05;;;1.55;;
1701;SDS011;848;48.354;10.064;2023-03-26T11:19:43;5.20;;;1.45;;
1701;SDS011;848;48.354;10.064;2023-03-26T11:22:19;5.80;;;1.90;;
1701;SDS011;848;48.354;10.064;2023-03-26T11:24:58;6.22;;;2.72;;
1701;SDS011;848;48.354;10.064;2023-03-26T11:27:39;9.93;;;6.75;;
1701;SDS011;848;48.354;10.064;2023-03-26T11:30:18;6.63;;;1.77;;
1701;SDS011;848;48.354;10.064;2023-03-26T11:32:53;5.85;;;1.25;;
1701;SDS011;848;48.354;10.064;2023-03-26T11:35:24;6.75;;;1.60;;
1701;SDS011;848;48.354;10.064;2023-03-26T11:37:57;12.30;;;1.25;;
1701;SDS011;848;48.354;10.064;2023-03-26T11:40:30;4.28;;;0.77;;
1701;SDS011;848;48.354;10.064;2023-03-26T11:43:01;4.95;;;0.90;;
1701;SDS011;848;48.354;10.064;2023-03-26T11:45:31;4.90;;;0.90;;
1701;SDS011;848;48.354;10.064;2023-03-26T11:48:03;4.05;;;0.40;;
1701;SDS011;848;48.354;10.064;2023-03-26T11:50:34;6.68;;;0.80;;
1701;SDS011;848;48.354;10.064;2023-03-26T11:53:09;6.63;;;0.90;;
1701;SDS011;848;48.354;10.064;2023-03-26T11:55:42;5.70;;;0.70;;
1701;SDS011;848;48.354;10.064;2023-03-26T11:58:19;4.32;;;0.80;;
1701;SDS011;848;48.354;10.064;2023-03-26T12:00:52;4.20;;;1.00;;
1701;SDS011;848;48.354;10.064;2023-03-26T12:03:20;4.88;;;1.48;;
1701;SDS011;848;48.354;10.064;2023-03-26T12:05:49;4.75;;;1.15;;
1701;SDS011;848;48.354;10.064;2023-03-26T12:08:26;4.72;;;1.10;;
1701;SDS011;848;48.354;10.064;2023-03-26T12:11:03;4.90;;;1.08;;
1701;SDS011;848;48.354;10.064;2023-03-26T12:13:35;9.57;;;1.10;;
1701;SDS011;848;48.354;10.064;2023-03-26T12:16:09;5.38;;;1.33;;
1701;SDS011;848;48.354;10.064;2023-03-26T12:18:38;5.30;;;0.93;;
1701;SDS011;848;48.354;10.064;2023-03-26T12:21:12;5.55;;;0.93;;
1701;SDS011;848;48.354;10.064;2023-03-26T12:23:42;4.30;;;0.60;;
1701;SDS011;848;48.354;10.064;2023-03-26T12:26:18;5.95;;;0.65;;
1701;SDS011;848;48.354;10.064;2023-03-26T12:28:47;9.35;;;3.63;;
1701;SDS011;848;48.354;10.064;2023-03-26T12:31:16;4.85;;;1.92;;
1701;SDS011;848;48.354;10.064;2023-03-26T12:33:45;7.93;;;2.33;;
1701;SDS011;848;48.354;10.064;2023-03-26T12:36:29;20.15;;;6.32;;
1701;SDS011;848;48.354;10.064;2023-03-26T12:38:57;15.15;;;6.13;;
1701;SDS011;848;48.354;10.064;2023-03-26T12:41:33;11.00;;;4.00;;
1701;SDS011;848;48.354;10.064;2023-03-26T12:44:20;15.55;;;7.20;;
1701;SDS011;848;48.354;10.064;2023-03-26T12:47:00;4.10;;;0.80;;
1701;SDS011;848;48.354;10.064;2023-03-26T12:49:33;5.15;;;0.63;;
1701;SDS011;848;48.354;10.064;2023-03-26T12:52:07;3.90;;;0.50;;
1701;SDS011;848;48.354;10.064;2023-03-26T12:54:46;4.32;;;0.80;;
1701;SDS011;848;48.354;10.064;2023-03-26T12:57:20;4.50;;;1.40;;
1701;SDS011;848;48.354;10.064;2023-03-26T12:59:52;4.13;;;0.70;;
1701;SDS011;848;48.354;10.064;2023-03-26T13:02:47;5.13;;;0.88;;
1701;SDS011;848;48.354;10.064;2023-03-26T13:05:29;4.80;;;0.95;;
1701;SDS011;848;48.354;10.064;2023-03-26T13:08:05;5.40;;;0.90;;
1701;SDS011;848;48.354;10.064;2023-03-26T13:10:52;4.22;;;0.88;;
1701;SDS011;848;48.354;10.064;2023-03-26T13:13:33;4.10;;;0.75;;
1701;SDS011;848;48.354;10.064;2023-03-26T13:16:22;4.43;;;0.93;;
1701;SDS011;848;48.354;10.064;2023-03-26T13:18:58;4.47;;;0.85;;
1701;SDS011;848;48.354;10.064;2023-03-26T13:21:33;5.78;;;0.80;;
1701;SDS011;848;48.354;10.064;2023-03-26T13:24:12;4.45;;;0.93;;
1701;SDS011;848;48.354;10.064;2023-03-26T13:26:50;5.75;;;0.82;;
1701;SDS011;848;48.354;10.064;2023-03-26T13:29:27;5.88;;;0.88;;
1701;SDS011;848;48.354;10.064;2023-03-26T13:32:02;6.80;;;0.95;;
1701;SDS011;848;48.354;10.064;2023-03-26T13:34:34;4.30;;;0.85;;
1701;SDS011;848;48.354;10.064;2023-03-26T13:37:09;4.55;;;0.93;;
1701;SDS011;848;48.354;10.064;2023-03-26T13:39:48;6.00;;;1.00;;
1701;SDS011;848;48.354;10.064;2023-03-26T13:42:32;4.20;;;0.90;;
1701;SDS011;848;48.354;10.064;2023-03-26T13:45:13;5.38;;;1.20;;
1701;SDS011;848;48.354;10.064;2023-03-26T13:47:58;7.97;;;1.20;;
1701;SDS011;848;48.354;10.064;2023-03-26T13:50:29;4.97;;;0.93;;
1701;SDS011;848;48.354;10.064;2023-03-26T13:53:00;7.40;;;1.65;;
1701;SDS011;848;48.354;10.064;2023-03-26T13:55:34;4.80;;;1.10;;
1701;SDS011;848;48.354;10.064;2023-03-26T13:58:05;12.15;;;1.65;;
1701;SDS011;848;48.354;10.064;2023-03-26T14:00:51;5.35;;;1.05;;
1701;SDS011;848;48.354;10.064;2023-03-26T14:03:25;4.40;;;0.80;;
1701;SDS011;848;48.354;10.064;2023-03-26T14:05:58;5.57;;;1.40;;
1701;SDS011;848;48.354;10.064;2023-03-26T14:08:29;4.65;;;0.80;;
1701;SDS011;848;48.354;10.064;2023-03-26T14:11:02;4.75;;;0.70;;
1701;SDS011;848;48.354;10.064;2023-03-26T14:13:35;5.85;;;0.98;;
1701;SDS011;848;48.354;10.064;2023-03-26T14:16:10;5.45;;;1.10;;
1701;SDS011;848;48.354;10.064;2023-03-26T14:18:43;4.20;;;0.70;;
1701;SDS011;848;48.354;10.064;2023-03-26T14:30:32;4.80;;;1.00;;
1701;SDS011;848;48.354;10.064;2023-03-26T14:36:19;5.88;;;0.82;;
1701;SDS011;848;48.354;10.064;2023-03-26T14:39:00;4.60;;;0.80;;
1701;SDS011;848;48.354;10.064;2023-03-26T14:41:44;7.63;;;1.00;;
1701;SDS011;848;48.354;10.064;2023-03-26T14:47:27;5.95;;;1.10;;
1701;SDS011;848;48.354;10.064;2023-03-26T14:53:01;6.50;;;1.30;;
1701;SDS011;848;48.354;10.064;2023-03-26T14:55:41;4.93;;;1.05;;
1701;SDS011;848;48.354;10.064;2023-03-26T15:01:28;4.60;;;0.93;;
1701;SDS011;848;48.354;10.064;2023-03-26T15:04:34;6.40;;;1.10;;
1701;SDS011;848;48.354;10.064;2023-03-26T15:07:20;4.78;;;1.00;;
1701;SDS011;848;48.354;10.064;2023-03-26T15:13:06;5.60;;;1.00;;
1701;SDS011;848;48.354;10.064;2023-03-26T15:16:00;4.95;;;0.70;;
1701;SDS011;848;48.354;10.064;2023-03-26T15:24:56;4.30;;;0.60;;
1701;SDS011;848;48.354;10.064;2023-03-26T15:28:10;6.72;;;0.60;;
1701;SDS011;848;48.354;10.064;2023-03-26T15:31:00;3.95;;;0.50;;
1701;SDS011;848;48.354;10.064;2023-03-26T15:33:59;5.07;;;0.60;;
1701;SDS011;848;48.354;10.064;2023-03-26T15:39:55;5.65;;;0.50;;
1701;SDS011;848;48.354;10.064;2023-03-26T15:42:36;4.60;;;0.60;;
1701;SDS011;848;48.354;10.064;2023-03-26T15:48:16;4.80;;;0.75;;
1701;SDS011;848;48.354;10.064;2023-03-26T15:51:13;4.00;;;0.60;;
1701;SDS011;848;48.354;10.064;2023-03-26T15:53:51;7.97;;;0.90;;
1701;SDS011;848;48.354;10.064;2023-03-26T15:56:29;4.85;;;0.63;;
1701;SDS011;848;48.354;10.064;2023-03-26T15:59:15;5.78;;;1.00;;
1701;SDS011;848;48.354;10.064;2023-03-26T16:01:57;4.38;;;0.50;;
1701;SDS011;848;48.354;10.064;2023-03-26T16:04:40;5.55;;;0.60;;
1701;SDS011;848;48.354;10.064;2023-03-26T16:07:21;6.05;;;0.77;;
1701;SDS011;848;48.354;10.064;2023-03-26T16:10:08;6.00;;;0.60;;
1701;SDS011;848;48.354;10.064;2023-03-26T16:12:45;4.63;;;0.50;;
1701;SDS011;848;48.354;10.064;2023-03-26T16:15:24;4.22;;;0.52;;
1701;SDS011;848;48.354;10.064;2023-03-26T16:18:18;4.60;;;0.70;;
1701;SDS011;848;48.354;10.064;2023-03-26T16:20:53;4.53;;;0.50;;
1701;SDS011;848;48.354;10.064;2023-03-26T16:23:29;5.28;;;0.40;;
1701;SDS011;848;48.354;10.064;2023-03-26T16:26:10;6.18;;;0.95;;
1701;SDS011;848;48.354;10.064;2023-03-26T16:31:56;4.40;;;0.55;;
1701;SDS011;848;48.354;10.064;2023-03-26T16:34:35;4.10;;;0.90;;
1701;SDS011;848;48.354;10.064;2023-03-26T16:42:53;3.90;;;0.50;;
1701;SDS011;848;48.354;10.064;2023-03-26T16:45:28;3.83;;;0.52;;
1701;SDS011;848;48.354;10.064;2023-03-26T16:48:04;5.07;;;0.80;;
1701;SDS011;848;48.354;10.064;2023-03-26T16:50:43;4.70;;;0.80;;
1701;SDS011;848;48.354;10.064;2023-03-26T16:53:21;5.25;;;0.68;;
1701;SDS011;848;48.354;10.064;2023-03-26T16:55:55;4.28;;;0.80;;
1701;SDS011;848;48.354;10.064;2023-03-26T16:58:28;5.65;;;0.68;;
1701;SDS011;848;48.354;10.064;2023-03-26T17:01:03;5.88;;;0.80;;
1701;SDS011;848;48.354;10.064;2023-03-26T17:03:43;3.95;;;0.60;;
1701;SDS011;848;48.354;10.064;2023-03-26T17:06:22;3.50;;;0.50;;
1701;SDS011;848;48.354;10.064;2023-03-26T17:09:04;4.43;;;0.80;;
1701;SDS011;848;48.354;10.064;2023-03-26T17:11:42;3.95;;;0.40;;
1701;SDS011;848;48.354;10.064;2023-03-26T17:14:22;3.70;;;0.38;;
1701;SDS011;848;48.354;10.064;2023-03-26T17:17:05;5.45;;;0.43;;
1701;SDS011;848;48.354;10.064;2023-03-26T17:19:44;3.53;;;0.32;;